sensor_id;sensor_type;location;lat;lon;timestamp;noise_LAeq;noise_LA_min;noise_LA_max;noise_LA01;noise_LA95
72805;Laerm;60920;48.748;19.142;2023-04-16T00:02:16;38.86;37.21;40.62;;
72805;Laerm;60920;48.748;19.142;2023-04-16T00:04:42;38.84;37.22;40.72;;
72805;Laerm;60920;48.748;19.142;2023-04-16T00:07:07;38.74;37.13;40.49;;
72805;Laerm;60920;48.748;19.142;2023-04-16T00:09:32;38.92;37.18;40.39;;
72805;Laerm;60920;48.748;19.142;2023-04-16T00:11:57;38.89;37.15;40.50;;
72805;Laerm;60920;48.748;19.142;2023-04-16T00:14:23;38.88;37.17;40.47;;
72805;Laerm;60920;48.748;19.142;2023-04-16T00:16:48;38.87;37.11;40.50;;
72805;Laerm;60920;48.748;19.142;2023-04-16T00:19:13;38.93;37.34;41.30;;
72805;Laerm;60920;48.748;19.142;2023-04-16T00:21:39;39.06;37.20;40.76;;
72805;Laerm;60920;48.748;19.142;2023-04-16T00:24:04;38.98;37.45;40.43;;
72805;Laerm;60920;48.748;19.142;2023-04-16T00:26:29;38.85;37.08;40.54;;
72805;Laerm;60920;48.748;19.142;2023-04-16T00:28:55;38.93;37.26;40.60;;
72805;Laerm;60920;48.748;19.142;2023-04-16T00:31:27;38.90;37.44;40.44;;
72805;Laerm;60920;48.748;19.142;2023-04-16T00:33:53;38.95;37.06;41.39;;
72805;Laerm;60920;48.748;19.142;2023-04-16T00:36:18;39.00;37.02;41.41;;
72805;Laerm;60920;48.748;19.142;2023-04-16T00:38:43;39.08;37.09;40.99;;
72805;Laerm;60920;48.748;19.142;2023-04-16T00:41:08;39.07;37.37;41.13;;
72805;Laerm;60920;48.748;19.142;2023-04-16T00:43:34;39.00;37.11;40.90;;
72805;Laerm;60920;48.748;19.142;2023-04-16T00:45:59;39.04;37.07;40.51;;
72805;Laerm;60920;48.748;19.142;2023-04-16T00:48:25;38.90;37.22;40.72;;
72805;Laerm;60920;48.748;19.142;2023-04-16T00:50:55;38.98;37.12;41.42;;
72805;Laerm;60920;48.748;19.142;2023-04-16T00:53:21;39.15;37.64;42.65;;
72805;Laerm;60920;48.748;19.142;2023-04-16T00:55:47;38.96;37.04;41.01;;
72805;Laerm;60920;48.748;19.142;2023-04-16T00:58:12;38.91;36.98;40.77;;
72805;Laerm;60920;48.748;19.142;2023-04-16T01:00:38;39.06;37.46;41.32;;
72805;Laerm;60920;48.748;19.142;2023-04-16T01:03:03;39.03;37.11;41.52;;
72805;Laerm;60920;48.748;19.142;2023-04-16T01:05:29;39.13;37.29;41.23;;
72805;Laerm;60920;48.748;19.142;2023-04-16T01:07:57;39.00;37.24;40.53;;
72805;Laerm;60920;48.748;19.142;2023-04-16T01:10:22;38.93;37.34;40.73;;
72805;Laerm;60920;48.748;19.142;2023-04-16T01:12:47;38.92;37.33;40.61;;
72805;Laerm;60920;48.748;19.142;2023-04-16T01:15:12;39.13;37.49;40.84;;
72805;Laerm;60920;48.748;19.142;2023-04-16T01:17:38;39.12;37.61;40.66;;
72805;Laerm;60920;48.748;19.142;2023-04-16T01:20:03;38.97;37.27;40.44;;
72805;Laerm;60920;48.748;19.142;2023-04-16T01:22:29;38.95;37.43;40.62;;
72805;Laerm;60920;48.748;19.142;2023-04-16T01:24:54;38.96;37.01;40.64;;
72805;Laerm;60920;48.748;19.142;2023-04-16T01:27:19;38.92;36.90;40.58;;
72805;Laerm;60920;48.748;19.142;2023-04-16T01:29:45;38.93;37.20;40.53;;
72805;Laerm;60920;48.748;19.142;2023-04-16T01:32:10;39.00;37.33;40.75;;
72805;Laerm;60920;48.748;19.142;2023-04-16T01:34:35;38.89;37.15;40.69;;
72805;Laerm;60920;48.748;19.142;2023-04-16T01:37:02;38.91;37.23;40.51;;
72805;Laerm;60920;48.748;19.142;2023-04-16T01:39:27;38.96;37.48;41.05;;
72805;Laerm;60920;48.748;19.142;2023-04-16T01:41:52;39.02;37.20;40.66;;
72805;Laerm;60920;48.748;19.142;2023-04-16T01:44:18;39.10;37.23;40.89;;
72805;Laerm;60920;48.748;19.142;2023-04-16T01:46:43;39.02;37.19;40.71;;
72805;Laerm;60920;48.748;19.142;2023-04-16T01:49:09;39.00;37.00;40.96;;
72805;Laerm;60920;48.748;19.142;2023-04-16T01:51:34;38.96;37.38;40.55;;
72805;Laerm;60920;48.748;19.142;2023-04-16T01:53:59;39.04;37.07;40.91;;
72805;Laerm;60920;48.748;19.142;2023-04-16T01:56:25;39.20;37.61;41.09;;
72805;Laerm;60920;48.748;19.142;2023-04-16T01:58:50;39.12;37.35;40.69;;
72805;Laerm;60920;48.748;19.142;2023-04-16T02:01:16;39.15;37.42;40.88;;
72805;Laerm;60920;48.748;19.142;2023-04-16T02:03:41;39.09;37.28;40.84;;
72805;Laerm;60920;48.748;19.142;2023-04-16T02:06:06;39.18;37.34;41.04;;
72805;Laerm;60920;48.748;19.142;2023-04-16T02:08:32;39.20;37.45;40.93;;
72805;Laerm;60920;48.748;19.142;2023-04-16T02:10:58;39.21;37.61;40.65;;
72805;Laerm;60920;48.748;19.142;2023-04-16T02:13:23;39.16;37.18;41.41;;
72805;Laerm;60920;48.748;19.142;2023-04-16T02:15:50;39.25;37.49;42.43;;
72805;Laerm;60920;48.748;19.142;2023-04-16T02:18:16;39.37;37.60;42.39;;
72805;Laerm;60920;48.748;19.142;2023-04-16T02:20:42;39.31;37.56;43.12;;
72805;Laerm;60920;48.748;19.142;2023-04-16T02:23:07;39.51;37.46;45.68;;
72805;Laerm;60920;48.748;19.142;2023-04-16T02:25:37;39.46;37.54;44.71;;
72805;Laerm;60920;48.748;19.142;2023-04-16T02:28:02;39.35;37.43;45.57;;
72805;Laerm;60920;48.748;19.142;2023-04-16T02:30:27;39.37;37.32;45.86;;
72805;Laerm;60920;48.748;19.142;2023-04-16T02:32:52;39.46;37.52;45.39;;
72805;Laerm;60920;48.748;19.142;2023-04-16T02:35:18;39.52;37.73;45.57;;
72805;Laerm;60920;48.748;19.142;2023-04-16T02:37:43;39.62;37.58;45.93;;
72805;Laerm;60920;48.748;19.142;2023-04-16T02:40:08;39.68;37.60;45.11;;
72805;Laerm;60920;48.748;19.142;2023-04-16T02:42:34;39.71;37.77;45.21;;
72805;Laerm;60920;48.748;19.142;2023-04-16T02:44:59;39.68;37.85;46.10;;
72805;Laerm;60920;48.748;19.142;2023-04-16T02:47:25;39.55;37.57;44.57;;
72805;Laerm;60920;48.748;19.142;2023-04-16T02:49:50;39.63;37.27;44.97;;
72805;Laerm;60920;48.748;19.142;2023-04-16T02:52:15;39.72;37.52;45.97;;
72805;Laerm;60920;48.748;19.142;2023-04-16T02:54:41;39.91;37.55;45.79;;
72805;Laerm;60920;48.748;19.142;2023-04-16T02:57:06;39.82;37.63;44.59;;
72805;Laerm;60920;48.748;19.142;2023-04-16T02:59:31;40.00;37.76;46.19;;
72805;Laerm;60920;48.748;19.142;2023-04-16T03:01:56;39.75;37.78;45.13;;
72805;Laerm;60920;48.748;19.142;2023-04-16T03:04:22;39.55;37.56;45.49;;
72805;Laerm;60920;48.748;19.142;2023-04-16T03:06:47;39.36;37.35;41.55;;
72805;Laerm;60920;48.748;19.142;2023-04-16T03:09:12;39.34;37.73;41.95;;
72805;Laerm;60920;48.748;19.142;2023-04-16T03:11:39;39.29;37.20;43.93;;
72805;Laerm;60920;48.748;19.142;2023-04-16T03:14:04;39.21;37.42;41.40;;
72805;Laerm;60920;48.748;19.142;2023-04-16T03:16:29;39.36;37.35;44.25;;
72805;Laerm;60920;48.748;19.142;2023-04-16T03:18:54;40.11;37.11;46.62;;
72805;Laerm;60920;48.748;19.142;2023-04-16T03:21:20;39.68;36.86;44.44;;
72805;Laerm;60920;48.748;19.142;2023-04-16T03:23:45;39.42;37.45;42.81;;
72805;Laerm;60920;48.748;19.142;2023-04-16T03:26:11;39.52;37.13;45.23;;
72805;Laerm;60920;48.748;19.142;2023-04-16T03:28:36;39.38;37.48;44.43;;
72805;Laerm;60920;48.748;19.142;2023-04-16T03:31:01;40.08;37.68;48.07;;
72805;Laerm;60920;48.748;19.142;2023-04-16T03:33:27;39.40;37.31;42.36;;
72805;Laerm;60920;48.748;19.142;2023-04-16T03:35:56;39.54;37.16;45.21;;
72805;Laerm;60920;48.748;19.142;2023-04-16T03:38:22;39.19;37.47;44.63;;
72805;Laerm;60920;48.748;19.142;2023-04-16T03:40:47;38.85;37.16;40.85;;
72805;Laerm;60920;48.748;19.142;2023-04-16T03:43:12;39.05;37.36;41.98;;
72805;Laerm;60920;48.748;19.142;2023-04-16T03:45:42;39.24;37.22;42.41;;
72805;Laerm;60920;48.748;19.142;2023-04-16T03:48:07;39.21;37.29;44.27;;
72805;Laerm;60920;48.748;19.142;2023-04-16T03:50:33;38.89;37.26;40.59;;
72805;Laerm;60920;48.748;19.142;2023-04-16T03:52:58;38.77;37.07;41.14;;
72805;Laerm;60920;48.748;19.142;2023-04-16T03:55:23;38.82;36.80;42.34;;
72805;Laerm;60920;48.748;19.142;2023-04-16T03:57:48;38.88;37.27;41.22;;
72805;Laerm;60920;48.748;19.142;2023-04-16T04:00:14;38.87;37.26;40.51;;
72805;Laerm;60920;48.748;19.142;2023-04-16T04:02:39;38.87;37.08;41.04;;
72805;Laerm;60920;48.748;19.142;2023-04-16T04:05:04;39.17;37.38;41.79;;
72805;Laerm;60920;48.748;19.142;2023-04-16T04:07:30;38.94;37.23;40.91;;
72805;Laerm;60920;48.748;19.142;2023-04-16T04:09:55;39.08;37.17;43.32;;
72805;Laerm;60920;48.748;19.142;2023-04-16T04:12:20;39.01;37.21;41.53;;
72805;Laerm;60920;48.748;19.142;2023-04-16T04:14:45;38.95;37.08;40.95;;
72805;Laerm;60920;48.748;19.142;2023-04-16T04:17:11;38.90;37.05;40.51;;
72805;Laerm;60920;48.748;19.142;2023-04-16T04:19:36;38.73;36.98;40.97;;
72805;Laerm;60920;48.748;19.142;2023-04-16T04:22:02;39.04;37.19;40.83;;
72805;Laerm;60920;48.748;19.142;2023-04-16T04:24:27;39.07;37.13;40.79;;
72805;Laerm;60920;48.748;19.142;2023-04-16T04:26:52;39.09;37.37;40.93;;
72805;Laerm;60920;48.748;19.142;2023-04-16T04:29:18;38.95;37.06;40.69;;
72805;Laerm;60920;48.748;19.142;2023-04-16T04:31:43;39.07;37.26;41.03;;
72805;Laerm;60920;48.748;19.142;2023-04-16T04:34:09;39.06;36.98;40.80;;
72805;Laerm;60920;48.748;19.142;2023-04-16T04:36:34;39.13;37.48;41.36;;
72805;Laerm;60920;48.748;19.142;2023-04-16T04:38:59;39.01;37.18;40.80;;
72805;Laerm;60920;48.748;19.142;2023-04-16T04:41:25;39.09;37.24;40.74;;
72805;Laerm;60920;48.748;19.142;2023-04-16T04:43:51;39.04;37.38;40.98;;
72805;Laerm;60920;48.748;19.142;2023-04-16T04:46:16;39.06;37.37;43.33;;
72805;Laerm;60920;48.748;19.142;2023-04-16T04:48:41;38.94;37.22;40.56;;
72805;Laerm;60920;48.748;19.142;2023-04-16T04:51:07;39.16;37.00;41.94;;
72805;Laerm;60920;48.748;19.142;2023-04-16T04:53:32;39.03;37.44;42.55;;
72805;Laerm;60920;48.748;19.142;2023-04-16T04:55:57;39.20;37.15;45.20;;
72805;Laerm;60920;48.748;19.142;2023-04-16T04:58:23;39.12;37.52;42.61;;
72805;Laerm;60920;48.748;19.142;2023-04-16T05:00:48;38.97;37.10;40.85;;
72805;Laerm;60920;48.748;19.142;2023-04-16T05:03:17;39.01;37.39;40.56;;
72805;Laerm;60920;48.748;19.142;2023-04-16T05:05:43;39.11;37.36;41.05;;
72805;Laerm;60920;48.748;19.142;2023-04-16T05:08:08;39.16;37.00;40.94;;
72805;Laerm;60920;48.748;19.142;2023-04-16T05:10:33;38.85;36.85;40.99;;
72805;Laerm;60920;48.748;19.142;2023-04-16T05:12:59;39.12;37.24;40.79;;
72805;Laerm;60920;48.748;19.142;2023-04-16T05:15:24;39.27;37.23;41.45;;
72805;Laerm;60920;48.748;19.142;2023-04-16T05:17:49;39.46;37.93;46.07;;
72805;Laerm;60920;48.748;19.142;2023-04-16T05:20:15;39.41;37.59;46.72;;
72805;Laerm;60920;48.748;19.142;2023-04-16T05:22:40;39.23;37.43;43.62;;
72805;Laerm;60920;48.748;19.142;2023-04-16T05:25:06;39.08;37.03;44.30;;
72805;Laerm;60920;48.748;19.142;2023-04-16T05:27:31;38.86;37.01;45.13;;
72805;Laerm;60920;48.748;19.142;2023-04-16T05:29:56;38.40;36.64;40.27;;
72805;Laerm;60920;48.748;19.142;2023-04-16T05:34:48;38.96;36.54;45.57;;
72805;Laerm;60920;48.748;19.142;2023-04-16T05:37:14;38.77;36.92;43.96;;
72805;Laerm;60920;48.748;19.142;2023-04-16T05:39:39;38.63;37.05;41.28;;
72805;Laerm;60920;48.748;19.142;2023-04-16T05:42:05;38.60;36.74;40.16;;
72805;Laerm;60920;48.748;19.142;2023-04-16T05:44:30;38.59;36.72;40.48;;
72805;Laerm;60920;48.748;19.142;2023-04-16T05:46:55;39.02;37.14;40.92;;
72805;Laerm;60920;48.748;19.142;2023-04-16T05:49:20;39.01;37.02;40.80;;
72805;Laerm;60920;48.748;19.142;2023-04-16T05:51:46;38.63;36.99;40.33;;
72805;Laerm;60920;48.748;19.142;2023-04-16T05:54:11;38.92;37.13;40.59;;
72805;Laerm;60920;48.748;19.142;2023-04-16T05:56:37;39.12;37.40;40.75;;
72805;Laerm;60920;48.748;19.142;2023-04-16T05:59:02;39.23;37.43;41.40;;
72805;Laerm;60920;48.748;19.142;2023-04-16T06:01:27;39.22;37.18;41.11;;
72805;Laerm;60920;48.748;19.142;2023-04-16T06:03:53;39.15;36.84;43.58;;
72805;Laerm;60920;48.748;19.142;2023-04-16T06:06:18;38.97;36.83;41.67;;
72805;Laerm;60920;48.748;19.142;2023-04-16T06:08:43;38.76;36.99;41.44;;
72805;Laerm;60920;48.748;19.142;2023-04-16T06:11:09;38.83;37.04;43.37;;
72805;Laerm;60920;48.748;19.142;2023-04-16T06:13:34;38.68;36.78;41.80;;
72805;Laerm;60920;48.748;19.142;2023-04-16T06:15:59;38.53;36.64;40.29;;
72805;Laerm;60920;48.748;19.142;2023-04-16T06:18:24;38.53;36.75;40.05;;
72805;Laerm;60920;48.748;19.142;2023-04-16T06:20:50;38.96;36.95;42.43;;
72805;Laerm;60920;48.748;19.142;2023-04-16T06:23:15;39.25;37.45;42.69;;
72805;Laerm;60920;48.748;19.142;2023-04-16T06:25:41;39.11;36.82;40.61;;
72805;Laerm;60920;48.748;19.142;2023-04-16T06:28:06;38.92;37.15;41.78;;
72805;Laerm;60920;48.748;19.142;2023-04-16T06:30:31;38.78;36.98;42.21;;
72805;Laerm;60920;48.748;19.142;2023-04-16T06:32:57;39.04;36.96;41.88;;
72805;Laerm;60920;48.748;19.142;2023-04-16T06:35:22;39.39;37.39;42.54;;
72805;Laerm;60920;48.748;19.142;2023-04-16T06:37:47;39.32;37.52;41.04;;
72805;Laerm;60920;48.748;19.142;2023-04-16T06:40:13;39.22;37.36;41.61;;
72805;Laerm;60920;48.748;19.142;2023-04-16T06:42:38;39.09;37.20;40.75;;
72805;Laerm;60920;48.748;19.142;2023-04-16T06:45:04;39.05;37.08;40.90;;
72805;Laerm;60920;48.748;19.142;2023-04-16T06:47:29;39.06;37.21;42.16;;
72805;Laerm;60920;48.748;19.142;2023-04-16T06:49:54;38.98;37.15;40.74;;
72805;Laerm;60920;48.748;19.142;2023-04-16T06:52:20;38.92;37.16;41.80;;
72805;Laerm;60920;48.748;19.142;2023-04-16T06:54:45;39.02;37.23;42.40;;
72805;Laerm;60920;48.748;19.142;2023-04-16T06:57:10;38.84;37.07;44.64;;
72805;Laerm;60920;48.748;19.142;2023-04-16T06:59:36;39.08;37.34;41.06;;
72805;Laerm;60920;48.748;19.142;2023-04-16T07:02:01;38.86;36.94;40.90;;
72805;Laerm;60920;48.748;19.142;2023-04-16T07:04:26;38.22;36.14;40.50;;
72805;Laerm;60920;48.748;19.142;2023-04-16T07:06:52;38.41;36.64;41.86;;
72805;Laerm;60920;48.748;19.142;2023-04-16T07:09:18;38.82;36.85;40.99;;
72805;Laerm;60920;48.748;19.142;2023-04-16T07:11:43;39.07;37.06;41.16;;
72805;Laerm;60920;48.748;19.142;2023-04-16T07:14:08;39.22;36.91;41.00;;
72805;Laerm;60920;48.748;19.142;2023-04-16T07:16:34;39.50;37.89;41.89;;
72805;Laerm;60920;48.748;19.142;2023-04-16T07:19:01;39.00;36.98;40.95;;
72805;Laerm;60920;48.748;19.142;2023-04-16T07:21:26;38.78;36.95;40.30;;
72805;Laerm;60920;48.748;19.142;2023-04-16T07:23:52;38.67;37.04;40.39;;
72805;Laerm;60920;48.748;19.142;2023-04-16T07:26:17;38.74;36.76;40.77;;
72805;Laerm;60920;48.748;19.142;2023-04-16T07:28:42;38.91;37.20;41.01;;
72805;Laerm;60920;48.748;19.142;2023-04-16T07:31:08;38.75;36.68;40.52;;
72805;Laerm;60920;48.748;19.142;2023-04-16T07:33:33;38.30;36.25;40.67;;
72805;Laerm;60920;48.748;19.142;2023-04-16T07:35:58;38.21;35.67;40.16;;
72805;Laerm;60920;48.748;19.142;2023-04-16T07:38:23;38.70;36.91;40.60;;
72805;Laerm;60920;48.748;19.142;2023-04-16T07:40:49;38.47;36.64;41.83;;
72805;Laerm;60920;48.748;19.142;2023-04-16T07:43:14;38.59;36.68;43.46;;
72805;Laerm;60920;48.748;19.142;2023-04-16T07:45:40;38.40;36.53;41.02;;
72805;Laerm;60920;48.748;19.142;2023-04-16T07:48:05;38.71;36.87;44.03;;
72805;Laerm;60920;48.748;19.142;2023-04-16T07:50:31;38.51;36.72;43.19;;
72805;Laerm;60920;48.748;19.142;2023-04-16T07:52:57;38.11;36.08;40.09;;
72805;Laerm;60920;48.748;19.142;2023-04-16T07:55:22;37.66;35.95;41.91;;
72805;Laerm;60920;48.748;19.142;2023-04-16T07:57:47;37.46;35.86;41.61;;
72805;Laerm;60920;48.748;19.142;2023-04-16T08:00:13;36.96;34.92;43.27;;
72805;Laerm;60920;48.748;19.142;2023-04-16T08:02:38;37.33;35.28;41.85;;
72805;Laerm;60920;48.748;19.142;2023-04-16T08:05:04;37.66;35.39;43.32;;
72805;Laerm;60920;48.748;19.142;2023-04-16T08:07:30;37.80;35.49;45.10;;
72805;Laerm;60920;48.748;19.142;2023-04-16T08:09:55;37.22;34.41;44.48;;
72805;Laerm;60920;48.748;19.142;2023-04-16T08:12:20;37.21;35.24;41.39;;
72805;Laerm;60920;48.748;19.142;2023-04-16T08:14:46;37.41;35.56;44.19;;
72805;Laerm;60920;48.748;19.142;2023-04-16T08:17:12;37.19;35.47;38.98;;
72805;Laerm;60920;48.748;19.142;2023-04-16T08:19:37;37.32;35.54;39.15;;
72805;Laerm;60920;48.748;19.142;2023-04-16T08:22:02;37.56;35.53;43.12;;
72805;Laerm;60920;48.748;19.142;2023-04-16T08:24:28;37.49;35.68;41.48;;
72805;Laerm;60920;48.748;19.142;2023-04-16T08:26:53;37.43;35.47;42.06;;
72805;Laerm;60920;48.748;19.142;2023-04-16T08:29:18;37.29;35.66;40.13;;
72805;Laerm;60920;48.748;19.142;2023-04-16T08:31:45;37.61;35.68;46.99;;
72805;Laerm;60920;48.748;19.142;2023-04-16T08:34:10;37.23;35.15;39.58;;
72805;Laerm;60920;48.748;19.142;2023-04-16T08:36:36;36.87;34.68;40.19;;
72805;Laerm;60920;48.748;19.142;2023-04-16T08:39:01;37.44;35.30;45.44;;
72805;Laerm;60920;48.748;19.142;2023-04-16T08:41:27;37.09;35.29;41.31;;
72805;Laerm;60920;48.748;19.142;2023-04-16T08:43:55;37.19;35.35;43.74;;
72805;Laerm;60920;48.748;19.142;2023-04-16T08:46:22;36.97;35.14;43.36;;
72805;Laerm;60920;48.748;19.142;2023-04-16T08:48:49;36.77;34.87;40.47;;
72805;Laerm;60920;48.748;19.142;2023-04-16T08:51:17;36.59;34.84;38.47;;
72805;Laerm;60920;48.748;19.142;2023-04-16T08:56:10;37.16;34.92;40.64;;
72805;Laerm;60920;48.748;19.142;2023-04-16T08:58:35;37.00;34.99;41.55;;
72805;Laerm;60920;48.748;19.142;2023-04-16T09:01:02;36.70;34.74;41.75;;
72805;Laerm;60920;48.748;19.142;2023-04-16T09:03:30;36.79;34.90;41.62;;
72805;Laerm;60920;48.748;19.142;2023-04-16T09:05:56;37.12;35.08;42.69;;
72805;Laerm;60920;48.748;19.142;2023-04-16T09:08:23;36.37;34.40;42.75;;
72805;Laerm;60920;48.748;19.142;2023-04-16T09:10:49;36.49;34.24;47.47;;
72805;Laerm;60920;48.748;19.142;2023-04-16T09:13:15;36.39;34.02;56.09;;
72805;Laerm;60920;48.748;19.142;2023-04-16T09:15:44;36.30;34.38;38.43;;
72805;Laerm;60920;48.748;19.142;2023-04-16T09:18:10;36.56;34.43;40.60;;
72805;Laerm;60920;48.748;19.142;2023-04-16T09:20:36;36.78;34.84;40.87;;
72805;Laerm;60920;48.748;19.142;2023-04-16T09:23:01;37.47;35.08;40.31;;
72805;Laerm;60920;48.748;19.142;2023-04-16T09:25:27;38.79;35.78;45.48;;
72805;Laerm;60920;48.748;19.142;2023-04-16T09:27:56;39.51;37.23;41.98;;
72805;Laerm;60920;48.748;19.142;2023-04-16T09:30:22;39.71;37.19;42.54;;
72805;Laerm;60920;48.748;19.142;2023-04-16T09:32:48;39.51;36.91;42.89;;
72805;Laerm;60920;48.748;19.142;2023-04-16T09:35:14;55.26;36.25;91.13;;
72805;Laerm;60920;48.748;19.142;2023-04-16T09:37:39;38.01;35.98;49.97;;
72805;Laerm;60920;48.748;19.142;2023-04-16T09:40:05;46.66;35.24;63.74;;
72805;Laerm;60920;48.748;19.142;2023-04-16T09:42:34;61.61;34.90;73.48;;
72805;Laerm;60920;48.748;19.142;2023-04-16T09:45:00;62.40;34.96;73.48;;
72805;Laerm;60920;48.748;19.142;2023-04-16T09:47:30;61.85;34.51;71.72;;
72805;Laerm;60920;48.748;19.142;2023-04-16T09:50:02;51.26;33.45;62.07;;
72805;Laerm;60920;48.748;19.142;2023-04-16T09:52:27;48.97;43.06;53.01;;
72805;Laerm;60920;48.748;19.142;2023-04-16T09:54:52;56.10;34.08;77.75;;
72805;Laerm;60920;48.748;19.142;2023-04-16T09:57:21;66.58;33.94;80.22;;
72805;Laerm;60920;48.748;19.142;2023-04-16T09:59:47;50.60;33.86;70.51;;
72805;Laerm;60920;48.748;19.142;2023-04-16T10:02:13;36.15;33.34;43.07;;
72805;Laerm;60920;48.748;19.142;2023-04-16T10:04:48;34.49;31.95;39.17;;
72805;Laerm;60920;48.748;19.142;2023-04-16T10:07:14;34.36;31.40;41.64;;
72805;Laerm;60920;48.748;19.142;2023-04-16T10:09:39;34.75;31.56;39.75;;
72805;Laerm;60920;48.748;19.142;2023-04-16T10:12:05;33.80;31.31;43.93;;
72805;Laerm;60920;48.748;19.142;2023-04-16T10:14:31;34.58;31.62;46.33;;
72805;Laerm;60920;48.748;19.142;2023-04-16T10:16:56;34.35;31.27;37.64;;
72805;Laerm;60920;48.748;19.142;2023-04-16T10:19:22;34.68;31.36;42.95;;
72805;Laerm;60920;48.748;19.142;2023-04-16T10:21:48;33.93;31.04;37.35;;
72805;Laerm;60920;48.748;19.142;2023-04-16T10:24:13;34.01;30.94;42.26;;
72805;Laerm;60920;48.748;19.142;2023-04-16T10:26:41;33.98;30.92;41.12;;
72805;Laerm;60920;48.748;19.142;2023-04-16T10:29:07;34.72;30.72;44.02;;
72805;Laerm;60920;48.748;19.142;2023-04-16T10:31:33;34.02;31.15;43.05;;
72805;Laerm;60920;48.748;19.142;2023-04-16T10:33:59;34.16;31.06;42.76;;
72805;Laerm;60920;48.748;19.142;2023-04-16T10:36:25;36.97;31.40;52.24;;
72805;Laerm;60920;48.748;19.142;2023-04-16T10:38:51;34.36;31.83;38.24;;
72805;Laerm;60920;48.748;19.142;2023-04-16T10:41:20;34.72;31.68;42.70;;
72805;Laerm;60920;48.748;19.142;2023-04-16T10:43:46;34.37;31.01;39.65;;
72805;Laerm;60920;48.748;19.142;2023-04-16T10:48:43;35.68;31.54;46.22;;
72805;Laerm;60920;48.748;19.142;2023-04-16T10:51:08;36.69;31.33;51.77;;
72805;Laerm;60920;48.748;19.142;2023-04-16T10:53:46;35.35;31.75;47.54;;
72805;Laerm;60920;48.748;19.142;2023-04-16T10:56:12;40.17;32.08;53.86;;
72805;Laerm;60920;48.748;19.142;2023-04-16T10:58:37;35.74;32.35;48.66;;
72805;Laerm;60920;48.748;19.142;2023-04-16T11:01:06;37.10;33.12;48.65;;
72805;Laerm;60920;48.748;19.142;2023-04-16T11:03:34;44.26;34.40;56.14;;
72805;Laerm;60920;48.748;19.142;2023-04-16T11:06:16;41.38;34.08;57.46;;
72805;Laerm;60920;48.748;19.142;2023-04-16T11:08:45;36.27;32.85;49.41;;
72805;Laerm;60920;48.748;19.142;2023-04-16T11:11:11;35.49;33.13;41.51;;
72805;Laerm;60920;48.748;19.142;2023-04-16T11:13:37;35.76;32.41;45.75;;
72805;Laerm;60920;48.748;19.142;2023-04-16T11:16:03;35.12;31.60;43.81;;
72805;Laerm;60920;48.748;19.142;2023-04-16T11:18:28;34.60;31.13;41.68;;
72805;Laerm;60920;48.748;19.142;2023-04-16T11:20:54;33.18;30.34;43.34;;
72805;Laerm;60920;48.748;19.142;2023-04-16T11:23:19;33.93;30.73;48.09;;
72805;Laerm;60920;48.748;19.142;2023-04-16T11:25:44;33.75;30.38;44.64;;
72805;Laerm;60920;48.748;19.142;2023-04-16T11:28:10;34.76;31.23;41.13;;
72805;Laerm;60920;48.748;19.142;2023-04-16T11:30:36;34.54;31.15;46.54;;
72805;Laerm;60920;48.748;19.142;2023-04-16T11:33:02;33.13;30.20;38.61;;
72805;Laerm;60920;48.748;19.142;2023-04-16T11:35:28;34.87;31.02;42.69;;
72805;Laerm;60920;48.748;19.142;2023-04-16T11:37:57;35.48;31.56;51.62;;
72805;Laerm;60920;48.748;19.142;2023-04-16T11:40:22;34.24;30.65;49.58;;
72805;Laerm;60920;48.748;19.142;2023-04-16T11:42:48;37.58;31.00;69.75;;
72805;Laerm;60920;48.748;19.142;2023-04-16T11:45:13;34.64;30.81;40.42;;
72805;Laerm;60920;48.748;19.142;2023-04-16T11:47:49;34.05;29.88;40.68;;
72805;Laerm;60920;48.748;19.142;2023-04-16T11:50:25;43.07;30.43;57.11;;
72805;Laerm;60920;48.748;19.142;2023-04-16T11:52:52;34.62;30.05;48.44;;
72805;Laerm;60920;48.748;19.142;2023-04-16T11:55:18;35.07;30.31;49.90;;
72805;Laerm;60920;48.748;19.142;2023-04-16T11:57:44;34.28;30.91;38.42;;
72805;Laerm;60920;48.748;19.142;2023-04-16T12:00:10;33.63;29.49;42.38;;
72805;Laerm;60920;48.748;19.142;2023-04-16T12:02:50;34.79;30.53;47.22;;
72805;Laerm;60920;48.748;19.142;2023-04-16T12:05:35;34.34;30.95;47.90;;
72805;Laerm;60920;48.748;19.142;2023-04-16T12:08:02;33.76;30.82;40.02;;
72805;Laerm;60920;48.748;19.142;2023-04-16T12:10:28;35.38;31.20;47.43;;
72805;Laerm;60920;48.748;19.142;2023-04-16T12:12:53;35.62;31.08;48.56;;
72805;Laerm;60920;48.748;19.142;2023-04-16T12:15:18;35.21;30.55;46.46;;
72805;Laerm;60920;48.748;19.142;2023-04-16T12:17:44;35.54;30.92;55.82;;
72805;Laerm;60920;48.748;19.142;2023-04-16T12:20:13;36.11;30.85;55.60;;
72805;Laerm;60920;48.748;19.142;2023-04-16T12:22:40;35.63;30.87;46.76;;
72805;Laerm;60920;48.748;19.142;2023-04-16T12:25:11;36.58;31.74;50.77;;
72805;Laerm;60920;48.748;19.142;2023-04-16T12:30:10;35.84;31.24;45.42;;
72805;Laerm;60920;48.748;19.142;2023-04-16T12:32:36;35.09;31.17;47.77;;
72805;Laerm;60920;48.748;19.142;2023-04-16T12:35:01;35.16;30.32;44.24;;
72805;Laerm;60920;48.748;19.142;2023-04-16T12:37:26;34.05;29.32;55.71;;
72805;Laerm;60920;48.748;19.142;2023-04-16T12:39:52;35.20;30.58;49.22;;
72805;Laerm;60920;48.748;19.142;2023-04-16T12:42:17;34.58;29.97;45.98;;
72805;Laerm;60920;48.748;19.142;2023-04-16T12:44:43;35.36;29.25;59.84;;
72805;Laerm;60920;48.748;19.142;2023-04-16T12:47:08;33.46;29.29;40.69;;
72805;Laerm;60920;48.748;19.142;2023-04-16T12:49:34;34.54;31.51;41.04;;
72805;Laerm;60920;48.748;19.142;2023-04-16T12:52:00;33.23;29.27;40.25;;
72805;Laerm;60920;48.748;19.142;2023-04-16T12:54:26;34.95;29.39;50.42;;
72805;Laerm;60920;48.748;19.142;2023-04-16T12:56:53;35.38;30.18;52.01;;
72805;Laerm;60920;48.748;19.142;2023-04-16T12:59:19;33.78;30.00;41.23;;
72805;Laerm;60920;48.748;19.142;2023-04-16T13:01:44;34.69;30.43;44.20;;
72805;Laerm;60920;48.748;19.142;2023-04-16T13:04:09;35.05;30.40;45.79;;
72805;Laerm;60920;48.748;19.142;2023-04-16T13:06:35;34.42;29.65;44.71;;
72805;Laerm;60920;48.748;19.142;2023-04-16T13:09:01;34.45;31.02;43.86;;
72805;Laerm;60920;48.748;19.142;2023-04-16T13:11:27;34.52;29.16;42.46;;
72805;Laerm;60920;48.748;19.142;2023-04-16T13:13:52;34.10;29.97;41.72;;
72805;Laerm;60920;48.748;19.142;2023-04-16T13:16:17;33.79;30.13;40.33;;
72805;Laerm;60920;48.748;19.142;2023-04-16T13:18:43;33.11;30.12;46.16;;
72805;Laerm;60920;48.748;19.142;2023-04-16T13:21:08;33.94;29.72;43.11;;
72805;Laerm;60920;48.748;19.142;2023-04-16T13:23:34;34.00;28.37;45.89;;
72805;Laerm;60920;48.748;19.142;2023-04-16T13:25:59;34.12;30.32;46.48;;
72805;Laerm;60920;48.748;19.142;2023-04-16T13:28:25;34.56;30.41;46.52;;
72805;Laerm;60920;48.748;19.142;2023-04-16T13:30:51;35.44;29.43;48.16;;
72805;Laerm;60920;48.748;19.142;2023-04-16T13:33:16;34.82;28.76;45.39;;
72805;Laerm;60920;48.748;19.142;2023-04-16T13:35:41;34.41;30.54;48.07;;